sensor_id;sensor_type;location;lat;lon;timestamp;P1;durP1;ratioP1;P2;durP2;ratioP2
26080;SDS011;13991;51.174;4.438;2023-08-08T00:00:41;18.47;;;1.77;;
26080;SDS011;13991;51.174;4.438;2023-08-08T00:03:08;16.03;;;1.93;;
26080;SDS011;13991;51.174;4.438;2023-08-08T00:05:34;13.60;;;1.80;;
26080;SDS011;13991;51.174;4.438;2023-08-08T00:07:59;9.57;;;1.60;;
26080;SDS011;13991;51.174;4.438;2023-08-08T00:10:25;10.50;;;1.63;;
26080;SDS011;13991;51.174;4.438;2023-08-08T00:12:51;12.47;;;2.00;;
26080;SDS011;13991;51.174;4.438;2023-08-08T00:15:16;7.10;;;1.53;;
26080;SDS011;13991;51.174;4.438;2023-08-08T00:17:42;10.03;;;1.73;;
26080;SDS011;13991;51.174;4.438;2023-08-08T00:20:09;19.30;;;2.33;;
26080;SDS011;13991;51.174;4.438;2023-08-08T00:22:35;12.47;;;2.33;;
26080;SDS011;13991;51.174;4.438;2023-08-08T00:25:01;23.30;;;2.13;;
26080;SDS011;13991;51.174;4.438;2023-08-08T00:27:27;11.47;;;1.47;;
26080;SDS011;13991;51.174;4.438;2023-08-08T00:29:55;6.77;;;1.27;;
26080;SDS011;13991;51.174;4.438;2023-08-08T00:32:21;9.80;;;2.20;;
26080;SDS011;13991;51.174;4.438;2023-08-08T00:34:47;12.40;;;1.77;;
26080;SDS011;13991;51.174;4.438;2023-08-08T00:37:13;18.77;;;1.70;;
26080;SDS011;13991;51.174;4.438;2023-08-08T00:39:39;15.13;;;2.47;;
26080;SDS011;13991;51.174;4.438;2023-08-08T00:42:07;12.13;;;2.23;;
26080;SDS011;13991;51.174;4.438;2023-08-08T00:44:33;10.80;;;2.70;;
26080;SDS011;13991;51.174;4.438;2023-08-08T00:46:58;15.27;;;2.03;;
26080;SDS011;13991;51.174;4.438;2023-08-08T00:49:24;14.23;;;2.17;;
26080;SDS011;13991;51.174;4.438;2023-08-08T00:51:50;14.87;;;1.57;;
26080;SDS011;13991;51.174;4.438;2023-08-08T00:54:15;20.23;;;2.43;;
26080;SDS011;13991;51.174;4.438;2023-08-08T00:56:43;8.80;;;2.40;;
26080;SDS011;13991;51.174;4.438;2023-08-08T00:59:08;10.07;;;2.13;;
26080;SDS011;13991;51.174;4.438;2023-08-08T01:01:36;11.10;;;2.60;;
26080;SDS011;13991;51.174;4.438;2023-08-08T01:04:02;16.70;;;2.70;;
26080;SDS011;13991;51.174;4.438;2023-08-08T01:06:33;11.17;;;2.70;;
26080;SDS011;13991;51.174;4.438;2023-08-08T01:09:14;17.30;;;2.70;;
26080;SDS011;13991;51.174;4.438;2023-08-08T01:11:56;19.53;;;2.60;;
26080;SDS011;13991;51.174;4.438;2023-08-08T01:14:24;15.17;;;2.53;;
26080;SDS011;13991;51.174;4.438;2023-08-08T01:16:53;19.23;;;3.07;;
26080;SDS011;13991;51.174;4.438;2023-08-08T01:19:23;19.57;;;3.43;;
26080;SDS011;13991;51.174;4.438;2023-08-08T01:21:57;18.00;;;2.43;;
26080;SDS011;13991;51.174;4.438;2023-08-08T01:24:28;9.67;;;3.00;;
26080;SDS011;13991;51.174;4.438;2023-08-08T01:27:01;21.83;;;3.60;;
26080;SDS011;13991;51.174;4.438;2023-08-08T01:29:27;19.23;;;3.40;;
26080;SDS011;13991;51.174;4.438;2023-08-08T01:31:54;18.33;;;2.40;;
26080;SDS011;13991;51.174;4.438;2023-08-08T01:34:22;18.57;;;2.63;;
26080;SDS011;13991;51.174;4.438;2023-08-08T01:36:56;16.77;;;2.53;;
26080;SDS011;13991;51.174;4.438;2023-08-08T01:39:29;20.03;;;2.43;;
26080;SDS011;13991;51.174;4.438;2023-08-08T01:41:58;18.33;;;3.00;;
26080;SDS011;13991;51.174;4.438;2023-08-08T01:44:25;16.60;;;2.83;;
26080;SDS011;13991;51.174;4.438;2023-08-08T01:46:53;22.70;;;2.83;;
26080;SDS011;13991;51.174;4.438;2023-08-08T01:49:20;12.80;;;2.40;;
26080;SDS011;13991;51.174;4.438;2023-08-08T01:51:46;20.13;;;2.53;;
26080;SDS011;13991;51.174;4.438;2023-08-08T01:54:16;13.43;;;2.43;;
26080;SDS011;13991;51.174;4.438;2023-08-08T01:56:42;34.43;;;2.90;;
26080;SDS011;13991;51.174;4.438;2023-08-08T01:59:11;27.27;;;3.30;;
26080;SDS011;13991;51.174;4.438;2023-08-08T02:01:37;17.77;;;2.80;;
26080;SDS011;13991;51.174;4.438;2023-08-08T02:04:03;20.37;;;3.50;;
26080;SDS011;13991;51.174;4.438;2023-08-08T02:06:31;23.33;;;3.17;;
26080;SDS011;13991;51.174;4.438;2023-08-08T02:08:57;17.03;;;2.80;;
26080;SDS011;13991;51.174;4.438;2023-08-08T02:11:24;18.63;;;3.03;;
26080;SDS011;13991;51.174;4.438;2023-08-08T02:13:49;20.37;;;2.60;;
26080;SDS011;13991;51.174;4.438;2023-08-08T02:16:15;17.53;;;2.80;;
26080;SDS011;13991;51.174;4.438;2023-08-08T02:18:41;21.70;;;2.83;;
26080;SDS011;13991;51.174;4.438;2023-08-08T02:21:07;21.13;;;2.83;;
26080;SDS011;13991;51.174;4.438;2023-08-08T02:23:36;22.23;;;3.63;;
26080;SDS011;13991;51.174;4.438;2023-08-08T02:26:02;36.07;;;2.93;;
26080;SDS011;13991;51.174;4.438;2023-08-08T02:28:28;13.07;;;2.70;;
26080;SDS011;13991;51.174;4.438;2023-08-08T02:30:54;26.63;;;3.37;;
26080;SDS011;13991;51.174;4.438;2023-08-08T02:33:23;20.97;;;3.43;;
26080;SDS011;13991;51.174;4.438;2023-08-08T02:35:50;17.40;;;2.90;;
26080;SDS011;13991;51.174;4.438;2023-08-08T02:38:16;26.10;;;3.07;;
26080;SDS011;13991;51.174;4.438;2023-08-08T02:40:42;17.73;;;3.70;;
26080;SDS011;13991;51.174;4.438;2023-08-08T02:43:08;15.17;;;3.00;;
26080;SDS011;13991;51.174;4.438;2023-08-08T02:45:37;25.07;;;3.03;;
26080;SDS011;13991;51.174;4.438;2023-08-08T02:48:04;15.73;;;2.93;;
26080;SDS011;13991;51.174;4.438;2023-08-08T02:50:30;29.07;;;3.90;;
26080;SDS011;13991;51.174;4.438;2023-08-08T02:52:56;12.50;;;2.77;;
26080;SDS011;13991;51.174;4.438;2023-08-08T02:55:22;23.63;;;3.80;;
26080;SDS011;13991;51.174;4.438;2023-08-08T02:57:50;20.90;;;3.80;;
26080;SDS011;13991;51.174;4.438;2023-08-08T03:00:16;14.30;;;3.17;;
26080;SDS011;13991;51.174;4.438;2023-08-08T03:02:43;22.57;;;2.97;;
26080;SDS011;13991;51.174;4.438;2023-08-08T03:05:08;26.67;;;4.03;;
26080;SDS011;13991;51.174;4.438;2023-08-08T03:07:36;29.13;;;3.53;;
26080;SDS011;13991;51.174;4.438;2023-08-08T03:10:02;24.90;;;2.93;;
26080;SDS011;13991;51.174;4.438;2023-08-08T03:12:28;20.17;;;2.67;;
26080;SDS011;13991;51.174;4.438;2023-08-08T03:14:54;23.13;;;3.00;;
26080;SDS011;13991;51.174;4.438;2023-08-08T03:17:21;30.57;;;3.67;;
26080;SDS011;13991;51.174;4.438;2023-08-08T03:19:47;18.87;;;3.40;;
26080;SDS011;13991;51.174;4.438;2023-08-08T03:22:13;39.03;;;3.87;;
26080;SDS011;13991;51.174;4.438;2023-08-08T03:24:38;24.83;;;3.50;;
26080;SDS011;13991;51.174;4.438;2023-08-08T03:27:04;18.57;;;3.53;;
26080;SDS011;13991;51.174;4.438;2023-08-08T03:29:30;31.57;;;3.57;;
26080;SDS011;13991;51.174;4.438;2023-08-08T03:31:55;18.87;;;3.30;;
26080;SDS011;13991;51.174;4.438;2023-08-08T03:34:21;17.50;;;3.30;;
26080;SDS011;13991;51.174;4.438;2023-08-08T03:36:49;18.57;;;3.77;;
26080;SDS011;13991;51.174;4.438;2023-08-08T03:39:15;23.97;;;4.33;;
26080;SDS011;13991;51.174;4.438;2023-08-08T03:41:41;19.77;;;2.90;;
26080;SDS011;13991;51.174;4.438;2023-08-08T03:44:07;25.07;;;3.73;;
26080;SDS011;13991;51.174;4.438;2023-08-08T03:46:32;16.70;;;4.07;;
26080;SDS011;13991;51.174;4.438;2023-08-08T03:48:58;21.97;;;3.13;;
26080;SDS011;13991;51.174;4.438;2023-08-08T03:51:24;22.10;;;3.70;;
26080;SDS011;13991;51.174;4.438;2023-08-08T03:53:50;21.43;;;3.53;;
26080;SDS011;13991;51.174;4.438;2023-08-08T04:00:00;30.67;;;3.87;;
26080;SDS011;13991;51.174;4.438;2023-08-08T04:02:26;25.00;;;4.27;;
26080;SDS011;13991;51.174;4.438;2023-08-08T04:04:53;24.40;;;3.63;;
26080;SDS011;13991;51.174;4.438;2023-08-08T04:07:19;30.30;;;3.53;;
26080;SDS011;13991;51.174;4.438;2023-08-08T04:09:44;18.70;;;3.43;;
26080;SDS011;13991;51.174;4.438;2023-08-08T04:12:11;20.43;;;3.23;;
26080;SDS011;13991;51.174;4.438;2023-08-08T04:14:40;22.23;;;3.60;;
26080;SDS011;13991;51.174;4.438;2023-08-08T04:17:06;25.53;;;4.57;;
26080;SDS011;13991;51.174;4.438;2023-08-08T04:19:32;26.37;;;4.00;;
26080;SDS011;13991;51.174;4.438;2023-08-08T04:22:01;25.27;;;3.83;;
26080;SDS011;13991;51.174;4.438;2023-08-08T04:24:27;23.50;;;3.63;;
26080;SDS011;13991;51.174;4.438;2023-08-08T04:26:52;15.40;;;3.40;;
26080;SDS011;13991;51.174;4.438;2023-08-08T04:29:18;25.87;;;4.23;;
26080;SDS011;13991;51.174;4.438;2023-08-08T04:31:44;30.93;;;4.97;;
26080;SDS011;13991;51.174;4.438;2023-08-08T04:34:09;20.33;;;3.77;;
26080;SDS011;13991;51.174;4.438;2023-08-08T04:36:35;15.30;;;3.70;;
26080;SDS011;13991;51.174;4.438;2023-08-08T04:39:02;30.73;;;4.00;;
26080;SDS011;13991;51.174;4.438;2023-08-08T04:41:29;27.83;;;4.20;;
26080;SDS011;13991;51.174;4.438;2023-08-08T04:43:56;18.77;;;3.77;;
26080;SDS011;13991;51.174;4.438;2023-08-08T04:46:21;24.40;;;3.77;;
26080;SDS011;13991;51.174;4.438;2023-08-08T04:48:47;25.90;;;4.37;;
26080;SDS011;13991;51.174;4.438;2023-08-08T04:51:13;24.37;;;3.73;;
26080;SDS011;13991;51.174;4.438;2023-08-08T04:53:38;23.50;;;3.53;;
26080;SDS011;13991;51.174;4.438;2023-08-08T04:56:04;12.43;;;3.27;;
26080;SDS011;13991;51.174;4.438;2023-08-08T04:58:31;23.20;;;3.93;;
26080;SDS011;13991;51.174;4.438;2023-08-08T05:00:58;17.97;;;3.47;;
26080;SDS011;13991;51.174;4.438;2023-08-08T05:03:24;21.43;;;3.30;;
26080;SDS011;13991;51.174;4.438;2023-08-08T05:05:49;20.73;;;4.30;;
26080;SDS011;13991;51.174;4.438;2023-08-08T05:08:16;21.33;;;3.47;;
26080;SDS011;13991;51.174;4.438;2023-08-08T05:10:41;19.63;;;3.67;;
26080;SDS011;13991;51.174;4.438;2023-08-08T05:13:08;24.73;;;4.27;;
26080;SDS011;13991;51.174;4.438;2023-08-08T05:15:36;27.80;;;4.13;;
26080;SDS011;13991;51.174;4.438;2023-08-08T05:18:01;28.13;;;3.90;;
26080;SDS011;13991;51.174;4.438;2023-08-08T05:20:28;20.77;;;3.50;;
26080;SDS011;13991;51.174;4.438;2023-08-08T05:22:55;28.23;;;5.03;;
26080;SDS011;13991;51.174;4.438;2023-08-08T05:25:21;20.07;;;3.47;;
26080;SDS011;13991;51.174;4.438;2023-08-08T05:30:23;34.47;;;4.40;;
26080;SDS011;13991;51.174;4.438;2023-08-08T05:32:49;26.17;;;4.30;;
26080;SDS011;13991;51.174;4.438;2023-08-08T05:35:14;25.67;;;4.67;;
26080;SDS011;13991;51.174;4.438;2023-08-08T05:37:40;26.87;;;4.10;;
26080;SDS011;13991;51.174;4.438;2023-08-08T05:40:06;25.43;;;3.33;;
26080;SDS011;13991;51.174;4.438;2023-08-08T05:42:32;20.83;;;4.30;;
26080;SDS011;13991;51.174;4.438;2023-08-08T05:44:58;22.53;;;4.13;;
26080;SDS011;13991;51.174;4.438;2023-08-08T05:47:24;23.47;;;4.60;;
26080;SDS011;13991;51.174;4.438;2023-08-08T05:49:50;31.40;;;4.67;;
26080;SDS011;13991;51.174;4.438;2023-08-08T05:52:16;21.97;;;3.80;;
26080;SDS011;13991;51.174;4.438;2023-08-08T05:54:42;22.87;;;3.63;;
26080;SDS011;13991;51.174;4.438;2023-08-08T05:57:09;25.43;;;3.63;;
26080;SDS011;13991;51.174;4.438;2023-08-08T05:59:36;18.27;;;3.43;;
26080;SDS011;13991;51.174;4.438;2023-08-08T06:02:02;28.07;;;4.47;;
26080;SDS011;13991;51.174;4.438;2023-08-08T06:04:27;21.23;;;3.70;;
26080;SDS011;13991;51.174;4.438;2023-08-08T06:06:53;17.57;;;3.97;;
26080;SDS011;13991;51.174;4.438;2023-08-08T06:09:20;18.30;;;3.83;;
26080;SDS011;13991;51.174;4.438;2023-08-08T06:11:47;30.63;;;4.37;;
26080;SDS011;13991;51.174;4.438;2023-08-08T06:14:14;23.30;;;3.87;;
26080;SDS011;13991;51.174;4.438;2023-08-08T06:16:41;29.90;;;4.13;;
26080;SDS011;13991;51.174;4.438;2023-08-08T06:19:07;27.97;;;4.30;;
26080;SDS011;13991;51.174;4.438;2023-08-08T06:21:33;25.57;;;3.77;;
26080;SDS011;13991;51.174;4.438;2023-08-08T06:23:59;27.50;;;4.23;;
26080;SDS011;13991;51.174;4.438;2023-08-08T06:26:25;19.47;;;4.07;;
26080;SDS011;13991;51.174;4.438;2023-08-08T06:28:51;26.27;;;4.00;;
26080;SDS011;13991;51.174;4.438;2023-08-08T06:31:17;23.60;;;4.00;;
26080;SDS011;13991;51.174;4.438;2023-08-08T06:33:43;22.73;;;3.80;;
26080;SDS011;13991;51.174;4.438;2023-08-08T06:36:09;19.17;;;3.73;;
26080;SDS011;13991;51.174;4.438;2023-08-08T06:38:35;20.00;;;3.30;;
26080;SDS011;13991;51.174;4.438;2023-08-08T06:41:02;21.03;;;3.50;;
26080;SDS011;13991;51.174;4.438;2023-08-08T06:43:28;26.80;;;4.30;;
26080;SDS011;13991;51.174;4.438;2023-08-08T06:45:55;20.70;;;3.30;;
26080;SDS011;13991;51.174;4.438;2023-08-08T06:48:21;41.10;;;5.93;;
26080;SDS011;13991;51.174;4.438;2023-08-08T06:50:48;27.67;;;4.03;;
26080;SDS011;13991;51.174;4.438;2023-08-08T06:53:15;20.83;;;3.47;;
26080;SDS011;13991;51.174;4.438;2023-08-08T06:55:40;19.00;;;3.37;;
26080;SDS011;13991;51.174;4.438;2023-08-08T06:58:07;24.97;;;5.00;;
26080;SDS011;13991;51.174;4.438;2023-08-08T07:00:33;28.97;;;4.30;;
26080;SDS011;13991;51.174;4.438;2023-08-08T07:02:59;20.70;;;2.70;;
26080;SDS011;13991;51.174;4.438;2023-08-08T07:05:25;22.03;;;3.70;;
26080;SDS011;13991;51.174;4.438;2023-08-08T07:07:52;20.03;;;3.17;;
26080;SDS011;13991;51.174;4.438;2023-08-08T07:10:19;20.87;;;3.47;;
26080;SDS011;13991;51.174;4.438;2023-08-08T07:12:44;22.30;;;4.00;;
26080;SDS011;13991;51.174;4.438;2023-08-08T07:15:10;26.90;;;4.00;;
26080;SDS011;13991;51.174;4.438;2023-08-08T07:17:36;24.63;;;3.43;;
26080;SDS011;13991;51.174;4.438;2023-08-08T07:20:03;22.17;;;2.93;;
26080;SDS011;13991;51.174;4.438;2023-08-08T07:22:31;18.83;;;3.20;;
26080;SDS011;13991;51.174;4.438;2023-08-08T07:24:58;21.70;;;3.43;;
26080;SDS011;13991;51.174;4.438;2023-08-08T07:27:25;16.50;;;2.90;;
26080;SDS011;13991;51.174;4.438;2023-08-08T07:29:53;27.17;;;5.63;;
26080;SDS011;13991;51.174;4.438;2023-08-08T07:32:18;20.33;;;3.20;;
26080;SDS011;13991;51.174;4.438;2023-08-08T07:34:46;22.33;;;3.17;;
26080;SDS011;13991;51.174;4.438;2023-08-08T07:37:13;18.17;;;3.03;;
26080;SDS011;13991;51.174;4.438;2023-08-08T07:39:39;22.93;;;3.17;;
26080;SDS011;13991;51.174;4.438;2023-08-08T07:42:05;18.57;;;3.60;;
26080;SDS011;13991;51.174;4.438;2023-08-08T07:44:31;22.73;;;3.73;;
26080;SDS011;13991;51.174;4.438;2023-08-08T07:46:59;20.50;;;2.93;;
26080;SDS011;13991;51.174;4.438;2023-08-08T07:49:26;22.37;;;3.47;;
26080;SDS011;13991;51.174;4.438;2023-08-08T07:51:53;41.00;;;3.77;;
26080;SDS011;13991;51.174;4.438;2023-08-08T07:54:23;21.47;;;4.00;;
26080;SDS011;13991;51.174;4.438;2023-08-08T07:56:49;18.50;;;3.30;;
26080;SDS011;13991;51.174;4.438;2023-08-08T07:59:15;23.23;;;3.97;;
26080;SDS011;13991;51.174;4.438;2023-08-08T08:01:43;16.53;;;2.70;;
26080;SDS011;13991;51.174;4.438;2023-08-08T08:04:08;22.20;;;3.40;;
26080;SDS011;13991;51.174;4.438;2023-08-08T08:06:37;14.97;;;3.30;;
26080;SDS011;13991;51.174;4.438;2023-08-08T08:09:03;17.80;;;3.57;;
26080;SDS011;13991;51.174;4.438;2023-08-08T08:11:30;21.47;;;3.03;;
26080;SDS011;13991;51.174;4.438;2023-08-08T08:13:57;14.93;;;3.53;;
26080;SDS011;13991;51.174;4.438;2023-08-08T08:16:23;18.10;;;3.00;;
26080;SDS011;13991;51.174;4.438;2023-08-08T08:18:48;20.60;;;4.00;;
26080;SDS011;13991;51.174;4.438;2023-08-08T08:21:14;18.17;;;3.23;;
26080;SDS011;13991;51.174;4.438;2023-08-08T08:23:42;35.90;;;4.10;;
26080;SDS011;13991;51.174;4.438;2023-08-08T08:26:09;15.80;;;4.13;;
26080;SDS011;13991;51.174;4.438;2023-08-08T08:28:34;15.47;;;3.53;;
26080;SDS011;13991;51.174;4.438;2023-08-08T08:31:04;26.47;;;3.47;;
26080;SDS011;13991;51.174;4.438;2023-08-08T08:33:34;22.57;;;3.40;;
26080;SDS011;13991;51.174;4.438;2023-08-08T08:36:00;21.70;;;3.10;;
26080;SDS011;13991;51.174;4.438;2023-08-08T08:38:30;19.10;;;3.57;;
26080;SDS011;13991;51.174;4.438;2023-08-08T08:40:58;18.30;;;3.43;;
26080;SDS011;13991;51.174;4.438;2023-08-08T08:43:24;19.43;;;3.50;;
26080;SDS011;13991;51.174;4.438;2023-08-08T08:45:52;21.73;;;3.63;;
26080;SDS011;13991;51.174;4.438;2023-08-08T08:48:19;10.60;;;2.70;;
26080;SDS011;13991;51.174;4.438;2023-08-08T08:50:47;19.73;;;3.57;;
26080;SDS011;13991;51.174;4.438;2023-08-08T08:53:14;14.83;;;2.90;;
26080;SDS011;13991;51.174;4.438;2023-08-08T08:55:40;23.00;;;2.93;;
26080;SDS011;13991;51.174;4.438;2023-08-08T08:58:06;20.27;;;4.33;;
26080;SDS011;13991;51.174;4.438;2023-08-08T09:00:33;15.77;;;2.70;;
26080;SDS011;13991;51.174;4.438;2023-08-08T09:03:00;16.13;;;3.03;;
26080;SDS011;13991;51.174;4.438;2023-08-08T09:05:27;21.00;;;3.00;;
26080;SDS011;13991;51.174;4.438;2023-08-08T09:07:53;19.20;;;3.67;;
26080;SDS011;13991;51.174;4.438;2023-08-08T09:10:19;10.97;;;2.40;;
26080;SDS011;13991;51.174;4.438;2023-08-08T09:12:45;12.93;;;2.67;;
26080;SDS011;13991;51.174;4.438;2023-08-08T09:15:11;18.50;;;3.47;;
26080;SDS011;13991;51.174;4.438;2023-08-08T09:17:41;19.60;;;3.30;;
26080;SDS011;13991;51.174;4.438;2023-08-08T09:20:10;24.77;;;3.23;;
26080;SDS011;13991;51.174;4.438;2023-08-08T09:22:38;15.03;;;2.93;;
26080;SDS011;13991;51.174;4.438;2023-08-08T09:25:04;20.97;;;3.60;;
26080;SDS011;13991;51.174;4.438;2023-08-08T09:27:33;12.60;;;2.53;;
26080;SDS011;13991;51.174;4.438;2023-08-08T09:29:59;18.50;;;2.93;;
26080;SDS011;13991;51.174;4.438;2023-08-08T09:32:31;19.47;;;3.57;;
26080;SDS011;13991;51.174;4.438;2023-08-08T09:34:58;11.53;;;2.70;;
26080;SDS011;13991;51.174;4.438;2023-08-08T09:37:25;13.53;;;3.10;;
26080;SDS011;13991;51.174;4.438;2023-08-08T09:40:01;13.40;;;2.50;;
26080;SDS011;13991;51.174;4.438;2023-08-08T09:42:30;11.23;;;2.47;;
26080;SDS011;13991;51.174;4.438;2023-08-08T09:44:56;21.73;;;2.30;;
26080;SDS011;13991;51.174;4.438;2023-08-08T09:47:23;14.43;;;2.20;;
26080;SDS011;13991;51.174;4.438;2023-08-08T09:49:49;10.93;;;2.87;;
26080;SDS011;13991;51.174;4.438;2023-08-08T09:52:16;6.53;;;1.33;;
26080;SDS011;13991;51.174;4.438;2023-08-08T09:54:42;10.13;;;1.67;;
26080;SDS011;13991;51.174;4.438;2023-08-08T09:57:08;13.10;;;1.70;;
26080;SDS011;13991;51.174;4.438;2023-08-08T09:59:35;9.80;;;1.50;;
26080;SDS011;13991;51.174;4.438;2023-08-08T10:02:01;7.33;;;1.60;;
26080;SDS011;13991;51.174;4.438;2023-08-08T10:04:29;6.53;;;1.30;;
26080;SDS011;13991;51.174;4.438;2023-08-08T10:06:55;6.80;;;1.30;;
26080;SDS011;13991;51.174;4.438;2023-08-08T10:09:21;6.67;;;1.13;;
26080;SDS011;13991;51.174;4.438;2023-08-08T10:11:48;5.17;;;1.57;;
26080;SDS011;13991;51.174;4.438;2023-08-08T10:14:16;10.00;;;1.33;;
26080;SDS011;13991;51.174;4.438;2023-08-08T10:16:42;9.37;;;1.40;;
26080;SDS011;13991;51.174;4.438;2023-08-08T10:19:11;6.27;;;1.20;;
26080;SDS011;13991;51.174;4.438;2023-08-08T10:21:41;13.27;;;1.50;;
26080;SDS011;13991;51.174;4.438;2023-08-08T10:24:08;7.33;;;0.93;;
26080;SDS011;13991;51.174;4.438;2023-08-08T10:26:54;3.30;;;0.80;;
26080;SDS011;13991;51.174;4.438;2023-08-08T10:29:26;5.43;;;0.87;;
26080;SDS011;13991;51.174;4.438;2023-08-08T10:31:54;3.93;;;1.23;;
26080;SDS011;13991;51.174;4.438;2023-08-08T10:34:44;2.83;;;0.70;;
26080;SDS011;13991;51.174;4.438;2023-08-08T10:37:12;13.87;;;1.03;;
26080;SDS011;13991;51.174;4.438;2023-08-08T10:39:53;7.23;;;1.30;;
26080;SDS011;13991;51.174;4.438;2023-08-08T10:42:24;5.63;;;0.97;;
26080;SDS011;13991;51.174;4.438;2023-08-08T10:44:57;7.13;;;0.97;;
26080;SDS011;13991;51.174;4.438;2023-08-08T10:52:55;5.37;;;0.70;;
26080;SDS011;13991;51.174;4.438;2023-08-08T10:55:26;3.43;;;0.90;;
26080;SDS011;13991;51.174;4.438;2023-08-08T11:00:28;4.60;;;1.00;;
26080;SDS011;13991;51.174;4.438;2023-08-08T11:02:56;7.47;;;1.10;;
26080;SDS011;13991;51.174;4.438;2023-08-08T11:05:27;7.37;;;1.23;;
26080;SDS011;13991;51.174;4.438;2023-08-08T11:07:58;6.77;;;1.23;;
26080;SDS011;13991;51.174;4.438;2023-08-08T11:10:26;2.97;;;1.03;;
26080;SDS011;13991;51.174;4.438;2023-08-08T11:12:57;5.73;;;0.90;;
26080;SDS011;13991;51.174;4.438;2023-08-08T11:18:55;15.40;;;1.47;;
26080;SDS011;13991;51.174;4.438;2023-08-08T11:21:23;5.97;;;1.10;;
26080;SDS011;13991;51.174;4.438;2023-08-08T11:23:49;9.47;;;1.10;;
26080;SDS011;13991;51.174;4.438;2023-08-08T11:26:17;8.33;;;1.20;;
26080;SDS011;13991;51.174;4.438;2023-08-08T11:28:51;6.40;;;0.97;;
26080;SDS011;13991;51.174;4.438;2023-08-08T11:31:18;6.00;;;1.03;;
26080;SDS011;13991;51.174;4.438;2023-08-08T11:33:50;5.37;;;1.30;;
26080;SDS011;13991;51.174;4.438;2023-08-08T11:36:16;8.87;;;1.20;;
26080;SDS011;13991;51.174;4.438;2023-08-08T11:38:43;8.50;;;1.43;;
26080;SDS011;13991;51.174;4.438;2023-08-08T11:41:13;9.63;;;1.60;;
26080;SDS011;13991;51.174;4.438;2023-08-08T11:43:41;5.17;;;1.30;;
26080;SDS011;13991;51.174;4.438;2023-08-08T11:46:14;5.97;;;1.60;;
26080;SDS011;13991;51.174;4.438;2023-08-08T11:48:41;3.53;;;1.23;;
26080;SDS011;13991;51.174;4.438;2023-08-08T11:51:07;7.23;;;1.37;;
26080;SDS011;13991;51.174;4.438;2023-08-08T11:53:35;9.57;;;1.27;;
26080;SDS011;13991;51.174;4.438;2023-08-08T11:56:12;7.43;;;1.50;;
26080;SDS011;13991;51.174;4.438;2023-08-08T11:58:38;15.30;;;1.97;;
26080;SDS011;13991;51.174;4.438;2023-08-08T12:01:05;8.63;;;1.43;;
26080;SDS011;13991;51.174;4.438;2023-08-08T12:03:31;6.87;;;2.00;;
26080;SDS011;13991;51.174;4.438;2023-08-08T12:06:00;2.93;;;1.30;;
26080;SDS011;13991;51.174;4.438;2023-08-08T12:08:25;6.53;;;2.07;;
26080;SDS011;13991;51.174;4.438;2023-08-08T12:10:56;8.23;;;1.73;;
26080;SDS011;13991;51.174;4.438;2023-08-08T12:13:26;9.70;;;1.80;;
26080;SDS011;13991;51.174;4.438;2023-08-08T12:15:53;5.17;;;1.23;;
26080;SDS011;13991;51.174;4.438;2023-08-08T12:18:19;6.47;;;2.10;;
26080;SDS011;13991;51.174;4.438;2023-08-08T12:20:45;6.17;;;1.90;;
26080;SDS011;13991;51.174;4.438;2023-08-08T12:23:11;7.03;;;1.87;;
26080;SDS011;13991;51.174;4.438;2023-08-08T12:25:38;5.97;;;1.57;;
26080;SDS011;13991;51.174;4.438;2023-08-08T12:28:04;12.40;;;2.00;;
26080;SDS011;13991;51.174;4.438;2023-08-08T12:30:31;6.83;;;1.60;;
26080;SDS011;13991;51.174;4.438;2023-08-08T12:32:56;7.97;;;1.43;;
26080;SDS011;13991;51.174;4.438;2023-08-08T12:35:22;10.30;;;1.70;;
26080;SDS011;13991;51.174;4.438;2023-08-08T12:37:52;10.20;;;1.47;;
26080;SDS011;13991;51.174;4.438;2023-08-08T12:40:19;13.07;;;1.67;;
26080;SDS011;13991;51.174;4.438;2023-08-08T12:42:45;15.17;;;3.20;;
26080;SDS011;13991;51.174;4.438;2023-08-08T12:45:13;9.37;;;2.07;;
26080;SDS011;13991;51.174;4.438;2023-08-08T12:47:39;7.53;;;1.60;;
26080;SDS011;13991;51.174;4.438;2023-08-08T12:50:05;2.77;;;1.13;;
26080;SDS011;13991;51.174;4.438;2023-08-08T12:52:31;10.30;;;1.47;;
26080;SDS011;13991;51.174;4.438;2023-08-08T12:54:57;5.20;;;1.10;;
26080;SDS011;13991;51.174;4.438;2023-08-08T12:57:22;12.73;;;1.30;;
26080;SDS011;13991;51.174;4.438;2023-08-08T12:59:50;10.50;;;0.90;;
26080;SDS011;13991;51.174;4.438;2023-08-08T13:02:16;4.50;;;1.27;;
26080;SDS011;13991;51.174;4.438;2023-08-08T13:04:41;4.07;;;1.20;;
26080;SDS011;13991;51.174;4.438;2023-08-08T13:07:08;4.37;;;1.20;;
26080;SDS011;13991;51.174;4.438;2023-08-08T13:09:34;6.40;;;1.27;;
26080;SDS011;13991;51.174;4.438;2023-08-08T13:12:00;2.47;;;0.80;;
26080;SDS011;13991;51.174;4.438;2023-08-08T13:14:26;6.50;;;1.30;;
26080;SDS011;13991;51.174;4.438;2023-08-08T13:16:52;7.57;;;1.33;;
26080;SDS011;13991;51.174;4.438;2023-08-08T13:19:19;7.87;;;1.07;;
26080;SDS011;13991;51.174;4.438;2023-08-08T13:21:46;7.67;;;1.23;;
26080;SDS011;13991;51.174;4.438;2023-08-08T13:24:12;5.27;;;1.30;;
26080;SDS011;13991;51.174;4.438;2023-08-08T13:26:38;3.17;;;1.10;;
26080;SDS011;13991;51.174;4.438;2023-08-08T13:29:04;9.63;;;1.00;;
26080;SDS011;13991;51.174;4.438;2023-08-08T13:31:30;9.23;;;1.23;;
26080;SDS011;13991;51.174;4.438;2023-08-08T13:33:56;3.43;;;0.90;;
26080;SDS011;13991;51.174;4.438;2023-08-08T13:36:22;3.50;;;0.77;;
26080;SDS011;13991;51.174;4.438;2023-08-08T13:38:49;5.80;;;0.73;;
26080;SDS011;13991;51.174;4.438;2023-08-08T13:41:15;7.60;;;0.80;;
26080;SDS011;13991;51.174;4.438;2023-08-08T13:43:41;4.60;;;0.70;;
26080;SDS011;13991;51.174;4.438;2023-08-08T13:46:06;6.50;;;1.20;;
26080;SDS011;13991;51.174;4.438;2023-08-08T13:48:35;6.10;;;1.07;;
26080;SDS011;13991;51.174;4.438;2023-08-08T13:51:02;1.93;;;0.80;;
26080;SDS011;13991;51.174;4.438;2023-08-08T13:53:28;5.80;;;0.90;;
26080;SDS011;13991;51.174;4.438;2023-08-08T13:55:55;6.03;;;0.80;;
26080;SDS011;13991;51.174;4.438;2023-08-08T13:58:21;6.87;;;1.10;;
26080;SDS011;13991;51.174;4.438;2023-08-08T14:00:47;3.97;;;0.80;;
26080;SDS011;13991;51.174;4.438;2023-08-08T14:03:14;7.47;;;1.20;;
26080;SDS011;13991;51.174;4.438;2023-08-08T14:05:41;4.40;;;1.13;;
26080;SDS011;13991;51.174;4.438;2023-08-08T14:08:08;3.80;;;1.03;;
26080;SDS011;13991;51.174;4.438;2023-08-08T14:10:35;6.17;;;1.00;;
26080;SDS011;13991;51.174;4.438;2023-08-08T14:13:01;2.47;;;0.90;;
26080;SDS011;13991;51.174;4.438;2023-08-08T14:15:31;2.93;;;0.90;;
26080;SDS011;13991;51.174;4.438;2023-08-08T14:17:58;7.00;;;0.87;;
26080;SDS011;13991;51.174;4.438;2023-08-08T14:20:24;3.53;;;0.87;;
26080;SDS011;13991;51.174;4.438;2023-08-08T14:22:50;6.10;;;1.07;;
26080;SDS011;13991;51.174;4.438;2023-08-08T14:25:17;5.37;;;1.23;;
26080;SDS011;13991;51.174;4.438;2023-08-08T14:27:42;3.43;;;0.97;;
26080;SDS011;13991;51.174;4.438;2023-08-08T14:30:08;7.40;;;0.97;;
26080;SDS011;13991;51.174;4.438;2023-08-08T14:32:37;9.03;;;1.20;;
26080;SDS011;13991;51.174;4.438;2023-08-08T14:35:03;3.03;;;0.67;;
26080;SDS011;13991;51.174;4.438;2023-08-08T14:37:31;4.50;;;0.97;;
26080;SDS011;13991;51.174;4.438;2023-08-08T14:39:57;3.20;;;0.70;;
26080;SDS011;13991;51.174;4.438;2023-08-08T14:42:23;3.97;;;1.37;;
26080;SDS011;13991;51.174;4.438;2023-08-08T14:44:48;2.57;;;0.77;;
26080;SDS011;13991;51.174;4.438;2023-08-08T14:47:14;3.70;;;0.70;;
26080;SDS011;13991;51.174;4.438;2023-08-08T14:49:43;4.33;;;0.77;;
26080;SDS011;13991;51.174;4.438;2023-08-08T14:52:08;5.87;;;0.90;;
26080;SDS011;13991;51.174;4.438;2023-08-08T14:54:34;2.20;;;0.70;;